Nibulon 1 — UUAS4 — position and weather

sailwx.info

Track history (hours):
 
Tides and Currents Weather Stations Pressure Air Temp Water Temp Dewpoint Dewpoint Depression Visibility Wind Speed Wind Dir Waves Ship Positions

Nibulon 1

Last reported at 2014-Sep-28 20:31 UTC. Time now 2014-Oct-01 08:20 UTC.
Position N 48°01' E 035°08'.

Length 38 m; draft 2.6 m.

Type: Tug. MMSI: 272641000.

Date/timePositionNaut miles runAvg speedWind from/ knotsBaromVisibWave heightAir tempDewpointWater temp
2014-Sep-28 20:31N 48°01' E 035°08'5 5.1
2014-Sep-28 19:32N 47°57' E 035°07'4 3.9
2014-Sep-28 18:33N 47°53' E 035°06'1 1.0
2014-Sep-28 17:33N 47°52' E 035°05'1 1.4
2014-Sep-28 16:33N 47°50' E 035°05'3 2.7
2014-Sep-28 15:33N 47°49' E 035°09'4 3.7
2014-Sep-28 14:33N 47°52' E 035°05'1 1.1
2014-Sep-28 13:33N 47°53' E 035°06'1 1.3
2014-Sep-28 12:34N 47°52' E 035°05'0 0.1
2014-Sep-28 11:33N 47°52' E 035°05'4 4.0
2014-Sep-28 10:32N 47°49' E 035°09'0 0.2
2014-Sep-28 09:34N 47°48' E 035°09'3 2.9
2014-Sep-28 08:33N 47°46' E 035°10'4 4.5
2014-Sep-28 07:33N 47°41' E 035°08'132 4.0
2014-Sep-26 22:33N 46°33' E 032°22'5 4.4
2014-Sep-26 21:26N 46°33' E 032°15'4 5.0
2014-Sep-26 20:34N 46°32' E 032°09'5 5.1
2014-Sep-26 19:33N 46°32' E 032°01'5 5.0
2014-Sep-26 18:34N 46°34' E 031°54'11 5.3
2014-Sep-26 16:33N 46°35' E 031°39'3 0.1
2014-Sep-25 06:33N 46°35' E 031°34'4 3.2
2014-Sep-25 05:25N 46°35' E 031°40'3 3.0
2014-Sep-25 04:33N 46°35' E 031°44'3 3.2
2014-Sep-25 03:34N 46°35' E 031°48'3 3.3
2014-Sep-25 02:34N 46°34' E 031°53'3 3.3
2014-Sep-25 01:34N 46°33' E 031°57'3 3.3
2014-Sep-25 00:34N 46°32' E 032°02'  
Track history (hours):
 
Tides and Currents Weather Stations Pressure Air Temp Water Temp Dewpoint Dewpoint Depression Visibility Wind Speed Wind Dir Waves Ship Positions

Nibulon 1

Last reported at 2014-Sep-28 20:31 UTC. Time now 2014-Oct-01 08:20 UTC.
Position N 48°01' E 035°08'.

Length 38 m; draft 2.6 m.

Type: Tug. MMSI: 272641000.

Date/timePositionNaut miles runAvg speedWind from/ knotsBaromVisibWave heightAir tempDewpointWater temp
2014-Sep-28 20:31N 48°01' E 035°08'5 5.1
2014-Sep-28 19:32N 47°57' E 035°07'4 3.9
2014-Sep-28 18:33N 47°53' E 035°06'1 1.0
2014-Sep-28 17:33N 47°52' E 035°05'1 1.4
2014-Sep-28 16:33N 47°50' E 035°05'3 2.7
2014-Sep-28 15:33N 47°49' E 035°09'4 3.7
2014-Sep-28 14:33N 47°52' E 035°05'1 1.1
2014-Sep-28 13:33N 47°53' E 035°06'1 1.3
2014-Sep-28 12:34N 47°52' E 035°05'0 0.1
2014-Sep-28 11:33N 47°52' E 035°05'4 4.0
2014-Sep-28 10:32N 47°49' E 035°09'0 0.2
2014-Sep-28 09:34N 47°48' E 035°09'3 2.9
2014-Sep-28 08:33N 47°46' E 035°10'4 4.5
2014-Sep-28 07:33N 47°41' E 035°08'132 4.0
2014-Sep-26 22:33N 46°33' E 032°22'5 4.4
2014-Sep-26 21:26N 46°33' E 032°15'4 5.0
2014-Sep-26 20:34N 46°32' E 032°09'5 5.1
2014-Sep-26 19:33N 46°32' E 032°01'5 5.0
2014-Sep-26 18:34N 46°34' E 031°54'11 5.3
2014-Sep-26 16:33N 46°35' E 031°39'3 0.1
2014-Sep-25 06:33N 46°35' E 031°34'4 3.2
2014-Sep-25 05:25N 46°35' E 031°40'3 3.0
2014-Sep-25 04:33N 46°35' E 031°44'3 3.2
2014-Sep-25 03:34N 46°35' E 031°48'3 3.3
2014-Sep-25 02:34N 46°34' E 031°53'3 3.3
2014-Sep-25 01:34N 46°33' E 031°57'3 3.3
2014-Sep-25 00:34N 46°32' E 032°02'  

Dump ship's entire track history